sensor_id;sensor_type;location;lat;lon;timestamp;temperature;humidity
24814;DHT22;12904;50.088;11.414;2024-03-25T00:01:13;5.50;99.90
24814;DHT22;12904;50.088;11.414;2024-03-25T00:03:39;5.50;99.90
24814;DHT22;12904;50.088;11.414;2024-03-25T00:06:05;5.50;99.90
24814;DHT22;12904;50.088;11.414;2024-03-25T00:08:31;5.50;99.90
24814;DHT22;12904;50.088;11.414;2024-03-25T00:10:57;5.50;99.90
24814;DHT22;12904;50.088;11.414;2024-03-25T00:13:23;5.50;99.90
24814;DHT22;12904;50.088;11.414;2024-03-25T00:15:49;5.50;99.90
24814;DHT22;12904;50.088;11.414;2024-03-25T00:18:15;5.50;99.90
24814;DHT22;12904;50.088;11.414;2024-03-25T00:20:40;5.50;99.90
24814;DHT22;12904;50.088;11.414;2024-03-25T00:23:06;5.50;99.90
24814;DHT22;12904;50.088;11.414;2024-03-25T00:25:32;5.60;99.90
24814;DHT22;12904;50.088;11.414;2024-03-25T00:27:58;5.50;99.90
24814;DHT22;12904;50.088;11.414;2024-03-25T00:30:23;5.50;99.90
24814;DHT22;12904;50.088;11.414;2024-03-25T00:32:49;5.50;99.90
24814;DHT22;12904;50.088;11.414;2024-03-25T00:35:15;5.50;99.90
24814;DHT22;12904;50.088;11.414;2024-03-25T00:37:41;5.50;99.90
24814;DHT22;12904;50.088;11.414;2024-03-25T00:40:07;5.50;99.90
24814;DHT22;12904;50.088;11.414;2024-03-25T00:42:33;5.50;99.90
24814;DHT22;12904;50.088;11.414;2024-03-25T00:44:59;5.50;99.90
24814;DHT22;12904;50.088;11.414;2024-03-25T00:47:25;5.50;99.90
24814;DHT22;12904;50.088;11.414;2024-03-25T00:49:51;5.50;99.90
24814;DHT22;12904;50.088;11.414;2024-03-25T00:52:17;5.50;99.90
24814;DHT22;12904;50.088;11.414;2024-03-25T00:54:42;5.60;99.90
24814;DHT22;12904;50.088;11.414;2024-03-25T00:57:08;5.50;99.90
24814;DHT22;12904;50.088;11.414;2024-03-25T00:59:34;5.50;99.90
24814;DHT22;12904;50.088;11.414;2024-03-25T01:01:59;5.50;99.90
24814;DHT22;12904;50.088;11.414;2024-03-25T01:04:25;5.50;99.90
24814;DHT22;12904;50.088;11.414;2024-03-25T01:06:50;5.50;99.90
24814;DHT22;12904;50.088;11.414;2024-03-25T01:09:16;5.50;99.90
24814;DHT22;12904;50.088;11.414;2024-03-25T01:11:42;5.50;99.90
24814;DHT22;12904;50.088;11.414;2024-03-25T01:14:07;5.50;99.90
24814;DHT22;12904;50.088;11.414;2024-03-25T01:16:33;5.50;99.90
24814;DHT22;12904;50.088;11.414;2024-03-25T01:18:59;5.50;99.90
24814;DHT22;12904;50.088;11.414;2024-03-25T01:21:25;5.50;99.90
24814;DHT22;12904;50.088;11.414;2024-03-25T01:23:50;5.50;99.90
24814;DHT22;12904;50.088;11.414;2024-03-25T01:26:16;5.50;99.90
24814;DHT22;12904;50.088;11.414;2024-03-25T01:28:42;5.50;99.90
24814;DHT22;12904;50.088;11.414;2024-03-25T01:31:08;5.50;99.90
24814;DHT22;12904;50.088;11.414;2024-03-25T01:33:34;5.50;99.90
24814;DHT22;12904;50.088;11.414;2024-03-25T01:36:00;5.40;99.90
24814;DHT22;12904;50.088;11.414;2024-03-25T01:38:26;5.30;99.90
24814;DHT22;12904;50.088;11.414;2024-03-25T01:40:52;5.30;99.90
24814;DHT22;12904;50.088;11.414;2024-03-25T01:43:17;5.30;99.90
24814;DHT22;12904;50.088;11.414;2024-03-25T01:45:43;5.30;99.90
24814;DHT22;12904;50.088;11.414;2024-03-25T01:48:10;5.20;99.90
24814;DHT22;12904;50.088;11.414;2024-03-25T01:50:41;5.30;99.90
24814;DHT22;12904;50.088;11.414;2024-03-25T01:53:08;5.30;99.90
24814;DHT22;12904;50.088;11.414;2024-03-25T01:55:35;5.30;99.90
24814;DHT22;12904;50.088;11.414;2024-03-25T01:58:05;5.30;99.90
24814;DHT22;12904;50.088;11.414;2024-03-25T02:00:31;5.30;99.90
24814;DHT22;12904;50.088;11.414;2024-03-25T02:02:57;5.30;99.90
24814;DHT22;12904;50.088;11.414;2024-03-25T02:05:23;5.30;99.90
24814;DHT22;12904;50.088;11.414;2024-03-25T02:07:49;5.30;99.90
24814;DHT22;12904;50.088;11.414;2024-03-25T02:10:16;5.30;99.90
24814;DHT22;12904;50.088;11.414;2024-03-25T02:12:43;5.30;99.90
24814;DHT22;12904;50.088;11.414;2024-03-25T02:15:10;5.30;99.90
24814;DHT22;12904;50.088;11.414;2024-03-25T02:17:36;5.30;99.90
24814;DHT22;12904;50.088;11.414;2024-03-25T02:20:02;5.30;99.90
24814;DHT22;12904;50.088;11.414;2024-03-25T02:22:29;5.30;99.90
24814;DHT22;12904;50.088;11.414;2024-03-25T02:24:57;5.30;99.90
24814;DHT22;12904;50.088;11.414;2024-03-25T02:27:23;5.20;99.90
24814;DHT22;12904;50.088;11.414;2024-03-25T02:29:50;5.20;99.90
24814;DHT22;12904;50.088;11.414;2024-03-25T02:32:16;5.20;99.90
24814;DHT22;12904;50.088;11.414;2024-03-25T02:34:47;5.20;99.90
24814;DHT22;12904;50.088;11.414;2024-03-25T02:37:13;5.20;99.90
24814;DHT22;12904;50.088;11.414;2024-03-25T02:39:39;5.30;99.90
24814;DHT22;12904;50.088;11.414;2024-03-25T02:42:05;5.30;99.90
24814;DHT22;12904;50.088;11.414;2024-03-25T02:44:32;5.30;99.90
24814;DHT22;12904;50.088;11.414;2024-03-25T02:46:58;5.30;99.90
24814;DHT22;12904;50.088;11.414;2024-03-25T02:49:24;5.30;99.90
24814;DHT22;12904;50.088;11.414;2024-03-25T02:51:49;5.30;99.90
24814;DHT22;12904;50.088;11.414;2024-03-25T02:54:15;5.30;99.90
24814;DHT22;12904;50.088;11.414;2024-03-25T02:56:41;5.30;99.90
24814;DHT22;12904;50.088;11.414;2024-03-25T02:59:06;5.30;99.90
24814;DHT22;12904;50.088;11.414;2024-03-25T03:01:32;5.30;99.90
24814;DHT22;12904;50.088;11.414;2024-03-25T03:03:58;5.30;99.90
24814;DHT22;12904;50.088;11.414;2024-03-25T03:06:24;5.30;99.90
24814;DHT22;12904;50.088;11.414;2024-03-25T03:08:49;5.30;99.90
24814;DHT22;12904;50.088;11.414;2024-03-25T03:11:15;5.30;99.90
24814;DHT22;12904;50.088;11.414;2024-03-25T03:13:40;5.30;99.90
24814;DHT22;12904;50.088;11.414;2024-03-25T03:16:06;5.30;99.90
24814;DHT22;12904;50.088;11.414;2024-03-25T03:18:32;5.30;99.90
24814;DHT22;12904;50.088;11.414;2024-03-25T03:20:57;5.30;99.90
24814;DHT22;12904;50.088;11.414;2024-03-25T03:23:23;5.20;99.90
24814;DHT22;12904;50.088;11.414;2024-03-25T03:25:49;5.20;99.90
24814;DHT22;12904;50.088;11.414;2024-03-25T03:28:15;5.20;99.90
24814;DHT22;12904;50.088;11.414;2024-03-25T03:30:41;5.20;99.90
24814;DHT22;12904;50.088;11.414;2024-03-25T03:33:07;5.20;99.90
24814;DHT22;12904;50.088;11.414;2024-03-25T03:35:33;5.20;99.90
24814;DHT22;12904;50.088;11.414;2024-03-25T03:37:59;5.20;99.90
24814;DHT22;12904;50.088;11.414;2024-03-25T03:40:25;5.20;99.90
24814;DHT22;12904;50.088;11.414;2024-03-25T03:42:50;5.20;99.90
24814;DHT22;12904;50.088;11.414;2024-03-25T03:45:16;5.20;99.90
24814;DHT22;12904;50.088;11.414;2024-03-25T03:47:42;5.20;99.90
24814;DHT22;12904;50.088;11.414;2024-03-25T03:50:07;5.20;99.90
24814;DHT22;12904;50.088;11.414;2024-03-25T03:52:33;5.20;99.90
24814;DHT22;12904;50.088;11.414;2024-03-25T03:54:59;5.20;99.90
24814;DHT22;12904;50.088;11.414;2024-03-25T03:57:25;5.20;99.90
24814;DHT22;12904;50.088;11.414;2024-03-25T03:59:53;5.20;99.90
24814;DHT22;12904;50.088;11.414;2024-03-25T04:02:20;5.20;99.90
24814;DHT22;12904;50.088;11.414;2024-03-25T04:04:45;5.20;99.90
24814;DHT22;12904;50.088;11.414;2024-03-25T04:07:11;5.20;99.90
24814;DHT22;12904;50.088;11.414;2024-03-25T04:09:37;5.20;99.90
24814;DHT22;12904;50.088;11.414;2024-03-25T04:12:02;5.20;99.90
24814;DHT22;12904;50.088;11.414;2024-03-25T04:14:28;5.20;99.90
24814;DHT22;12904;50.088;11.414;2024-03-25T04:16:53;5.20;99.90
24814;DHT22;12904;50.088;11.414;2024-03-25T04:19:23;5.20;99.90
24814;DHT22;12904;50.088;11.414;2024-03-25T04:21:49;5.10;99.90
24814;DHT22;12904;50.088;11.414;2024-03-25T04:24:14;5.10;99.90
24814;DHT22;12904;50.088;11.414;2024-03-25T04:26:40;5.10;99.90
24814;DHT22;12904;50.088;11.414;2024-03-25T04:29:06;5.10;99.90
24814;DHT22;12904;50.088;11.414;2024-03-25T04:31:31;5.10;99.90
24814;DHT22;12904;50.088;11.414;2024-03-25T04:33:57;5.10;99.90
24814;DHT22;12904;50.088;11.414;2024-03-25T04:36:22;5.10;99.90
24814;DHT22;12904;50.088;11.414;2024-03-25T04:38:48;5.10;99.90
24814;DHT22;12904;50.088;11.414;2024-03-25T04:41:14;5.00;99.90
24814;DHT22;12904;50.088;11.414;2024-03-25T04:43:39;5.10;99.90
24814;DHT22;12904;50.088;11.414;2024-03-25T04:46:05;5.10;99.90
24814;DHT22;12904;50.088;11.414;2024-03-25T04:48:30;5.10;99.90
24814;DHT22;12904;50.088;11.414;2024-03-25T04:50:56;5.00;99.90
24814;DHT22;12904;50.088;11.414;2024-03-25T04:53:21;5.00;99.90
24814;DHT22;12904;50.088;11.414;2024-03-25T04:55:47;5.00;99.90
24814;DHT22;12904;50.088;11.414;2024-03-25T04:58:13;5.00;99.90
24814;DHT22;12904;50.088;11.414;2024-03-25T05:00:38;5.00;99.90
24814;DHT22;12904;50.088;11.414;2024-03-25T05:03:05;5.00;99.90
24814;DHT22;12904;50.088;11.414;2024-03-25T05:05:30;5.00;99.90
24814;DHT22;12904;50.088;11.414;2024-03-25T05:07:56;5.00;99.90
24814;DHT22;12904;50.088;11.414;2024-03-25T05:10:21;5.00;99.90
24814;DHT22;12904;50.088;11.414;2024-03-25T05:12:47;5.00;99.90
24814;DHT22;12904;50.088;11.414;2024-03-25T05:15:15;5.10;99.90
24814;DHT22;12904;50.088;11.414;2024-03-25T05:17:41;5.10;99.90
24814;DHT22;12904;50.088;11.414;2024-03-25T05:20:07;5.10;99.90
24814;DHT22;12904;50.088;11.414;2024-03-25T05:22:32;5.10;99.90
24814;DHT22;12904;50.088;11.414;2024-03-25T05:24:58;5.10;99.90
24814;DHT22;12904;50.088;11.414;2024-03-25T05:27:23;5.10;99.90
24814;DHT22;12904;50.088;11.414;2024-03-25T05:29:50;5.10;99.90
24814;DHT22;12904;50.088;11.414;2024-03-25T05:32:15;5.10;99.90
24814;DHT22;12904;50.088;11.414;2024-03-25T05:34:42;5.10;99.90
24814;DHT22;12904;50.088;11.414;2024-03-25T05:37:08;5.10;99.90
24814;DHT22;12904;50.088;11.414;2024-03-25T05:39:34;5.10;99.90
24814;DHT22;12904;50.088;11.414;2024-03-25T05:41:59;5.10;99.90
24814;DHT22;12904;50.088;11.414;2024-03-25T05:44:25;5.10;99.90
24814;DHT22;12904;50.088;11.414;2024-03-25T05:46:51;5.10;99.90
24814;DHT22;12904;50.088;11.414;2024-03-25T05:49:16;5.10;99.90
24814;DHT22;12904;50.088;11.414;2024-03-25T05:51:42;5.10;99.90
24814;DHT22;12904;50.088;11.414;2024-03-25T05:54:07;5.10;99.90
24814;DHT22;12904;50.088;11.414;2024-03-25T05:56:33;5.10;99.90
24814;DHT22;12904;50.088;11.414;2024-03-25T05:59:00;5.10;99.90
24814;DHT22;12904;50.088;11.414;2024-03-25T06:01:26;5.10;99.90
24814;DHT22;12904;50.088;11.414;2024-03-25T06:03:52;5.10;99.90
24814;DHT22;12904;50.088;11.414;2024-03-25T06:06:17;5.10;99.90
24814;DHT22;12904;50.088;11.414;2024-03-25T06:08:43;5.10;99.90
24814;DHT22;12904;50.088;11.414;2024-03-25T06:11:09;5.10;99.90
24814;DHT22;12904;50.088;11.414;2024-03-25T06:13:34;5.10;99.90
24814;DHT22;12904;50.088;11.414;2024-03-25T06:16:00;5.10;99.90
24814;DHT22;12904;50.088;11.414;2024-03-25T06:18:26;5.20;99.90
24814;DHT22;12904;50.088;11.414;2024-03-25T06:20:52;5.20;99.90
24814;DHT22;12904;50.088;11.414;2024-03-25T06:23:24;5.20;99.90
24814;DHT22;12904;50.088;11.414;2024-03-25T06:25:51;5.30;99.90
24814;DHT22;12904;50.088;11.414;2024-03-25T06:28:18;5.30;99.90
24814;DHT22;12904;50.088;11.414;2024-03-25T06:30:48;5.30;99.90
24814;DHT22;12904;50.088;11.414;2024-03-25T06:33:33;5.30;99.90
24814;DHT22;12904;50.088;11.414;2024-03-25T06:36:17;5.30;99.90
24814;DHT22;12904;50.088;11.414;2024-03-25T06:38:43;5.40;99.90
24814;DHT22;12904;50.088;11.414;2024-03-25T06:41:09;5.40;99.90
24814;DHT22;12904;50.088;11.414;2024-03-25T06:43:38;5.40;99.90
24814;DHT22;12904;50.088;11.414;2024-03-25T06:46:05;5.40;99.90
24814;DHT22;12904;50.088;11.414;2024-03-25T06:48:31;5.50;99.90
24814;DHT22;12904;50.088;11.414;2024-03-25T06:50:58;5.50;99.90
24814;DHT22;12904;50.088;11.414;2024-03-25T06:53:25;5.60;99.90
24814;DHT22;12904;50.088;11.414;2024-03-25T06:55:54;5.60;99.90
24814;DHT22;12904;50.088;11.414;2024-03-25T06:58:21;5.70;99.90
24814;DHT22;12904;50.088;11.414;2024-03-25T07:00:47;5.70;99.90
24814;DHT22;12904;50.088;11.414;2024-03-25T07:03:14;5.70;99.90
24814;DHT22;12904;50.088;11.414;2024-03-25T07:05:40;5.80;99.90
24814;DHT22;12904;50.088;11.414;2024-03-25T07:08:06;5.80;99.90
24814;DHT22;12904;50.088;11.414;2024-03-25T07:10:31;5.90;99.90
24814;DHT22;12904;50.088;11.414;2024-03-25T07:12:57;5.90;99.90
24814;DHT22;12904;50.088;11.414;2024-03-25T07:15:22;6.00;99.90
24814;DHT22;12904;50.088;11.414;2024-03-25T07:17:48;6.00;99.90
24814;DHT22;12904;50.088;11.414;2024-03-25T07:20:14;6.00;99.90
24814;DHT22;12904;50.088;11.414;2024-03-25T07:22:39;6.10;99.90
24814;DHT22;12904;50.088;11.414;2024-03-25T07:25:05;6.20;99.90
24814;DHT22;12904;50.088;11.414;2024-03-25T07:27:31;6.20;99.90
24814;DHT22;12904;50.088;11.414;2024-03-25T07:29:56;6.30;99.90
24814;DHT22;12904;50.088;11.414;2024-03-25T07:32:22;6.40;99.90
24814;DHT22;12904;50.088;11.414;2024-03-25T07:34:48;6.40;99.90
24814;DHT22;12904;50.088;11.414;2024-03-25T07:37:14;6.40;99.90
24814;DHT22;12904;50.088;11.414;2024-03-25T07:39:39;6.30;99.90
24814;DHT22;12904;50.088;11.414;2024-03-25T07:42:05;6.30;99.90
24814;DHT22;12904;50.088;11.414;2024-03-25T07:44:32;6.30;99.90
24814;DHT22;12904;50.088;11.414;2024-03-25T07:46:57;6.20;99.90
24814;DHT22;12904;50.088;11.414;2024-03-25T07:49:23;6.20;99.90
24814;DHT22;12904;50.088;11.414;2024-03-25T07:51:49;6.20;99.90
24814;DHT22;12904;50.088;11.414;2024-03-25T07:54:14;6.30;99.90
24814;DHT22;12904;50.088;11.414;2024-03-25T07:56:42;6.40;99.90
24814;DHT22;12904;50.088;11.414;2024-03-25T07:59:07;6.50;99.90
24814;DHT22;12904;50.088;11.414;2024-03-25T08:01:33;6.60;99.90
24814;DHT22;12904;50.088;11.414;2024-03-25T08:03:59;6.70;99.90
24814;DHT22;12904;50.088;11.414;2024-03-25T08:06:24;6.80;99.90
24814;DHT22;12904;50.088;11.414;2024-03-25T08:08:50;6.90;99.90
24814;DHT22;12904;50.088;11.414;2024-03-25T08:11:15;6.90;99.90
24814;DHT22;12904;50.088;11.414;2024-03-25T08:13:41;6.90;99.90
24814;DHT22;12904;50.088;11.414;2024-03-25T08:16:07;7.10;99.90
24814;DHT22;12904;50.088;11.414;2024-03-25T08:18:33;7.10;99.90
24814;DHT22;12904;50.088;11.414;2024-03-25T08:20:59;7.00;99.90
24814;DHT22;12904;50.088;11.414;2024-03-25T08:23:24;7.00;99.90
24814;DHT22;12904;50.088;11.414;2024-03-25T08:25:50;7.00;99.90
24814;DHT22;12904;50.088;11.414;2024-03-25T08:28:16;7.00;99.90
24814;DHT22;12904;50.088;11.414;2024-03-25T08:30:42;6.90;99.90
24814;DHT22;12904;50.088;11.414;2024-03-25T08:33:08;7.00;99.90
24814;DHT22;12904;50.088;11.414;2024-03-25T08:35:33;7.00;99.90
24814;DHT22;12904;50.088;11.414;2024-03-25T08:37:59;6.90;99.90
24814;DHT22;12904;50.088;11.414;2024-03-25T08:40:24;6.90;99.90
24814;DHT22;12904;50.088;11.414;2024-03-25T08:42:50;6.90;99.90
24814;DHT22;12904;50.088;11.414;2024-03-25T08:45:16;6.90;99.90
24814;DHT22;12904;50.088;11.414;2024-03-25T08:47:42;6.90;99.90
24814;DHT22;12904;50.088;11.414;2024-03-25T08:50:08;7.00;99.90
24814;DHT22;12904;50.088;11.414;2024-03-25T08:52:34;7.10;99.90
24814;DHT22;12904;50.088;11.414;2024-03-25T08:54:59;7.10;99.90
24814;DHT22;12904;50.088;11.414;2024-03-25T08:57:25;7.10;99.90
24814;DHT22;12904;50.088;11.414;2024-03-25T08:59:50;7.20;99.90
24814;DHT22;12904;50.088;11.414;2024-03-25T09:02:16;7.20;99.90
24814;DHT22;12904;50.088;11.414;2024-03-25T09:04:43;7.20;99.90
24814;DHT22;12904;50.088;11.414;2024-03-25T09:07:09;7.20;99.90
24814;DHT22;12904;50.088;11.414;2024-03-25T09:09:35;7.30;99.90
24814;DHT22;12904;50.088;11.414;2024-03-25T09:12:19;7.20;99.90
24814;DHT22;12904;50.088;11.414;2024-03-25T09:14:44;7.30;99.90
24814;DHT22;12904;50.088;11.414;2024-03-25T09:17:11;7.30;99.90
24814;DHT22;12904;50.088;11.414;2024-03-25T09:19:36;7.40;99.90
24814;DHT22;12904;50.088;11.414;2024-03-25T09:22:02;7.50;99.90
24814;DHT22;12904;50.088;11.414;2024-03-25T09:24:28;7.70;99.90
24814;DHT22;12904;50.088;11.414;2024-03-25T09:26:53;7.90;99.90
24814;DHT22;12904;50.088;11.414;2024-03-25T09:29:19;8.00;99.90
24814;DHT22;12904;50.088;11.414;2024-03-25T09:31:45;8.10;99.90
24814;DHT22;12904;50.088;11.414;2024-03-25T09:34:10;8.10;99.90
24814;DHT22;12904;50.088;11.414;2024-03-25T09:36:36;8.00;99.90
24814;DHT22;12904;50.088;11.414;2024-03-25T09:39:01;7.90;99.90
24814;DHT22;12904;50.088;11.414;2024-03-25T09:41:30;7.80;99.90
24814;DHT22;12904;50.088;11.414;2024-03-25T09:44:00;7.80;99.90
24814;DHT22;12904;50.088;11.414;2024-03-25T09:46:26;7.90;99.90
24814;DHT22;12904;50.088;11.414;2024-03-25T09:48:53;7.90;99.90
24814;DHT22;12904;50.088;11.414;2024-03-25T09:51:19;7.80;99.90
24814;DHT22;12904;50.088;11.414;2024-03-25T09:53:45;7.90;99.90
24814;DHT22;12904;50.088;11.414;2024-03-25T09:56:12;7.80;99.90
24814;DHT22;12904;50.088;11.414;2024-03-25T09:58:39;7.70;99.90
24814;DHT22;12904;50.088;11.414;2024-03-25T10:01:05;7.60;99.90
24814;DHT22;12904;50.088;11.414;2024-03-25T10:03:30;7.50;99.90
24814;DHT22;12904;50.088;11.414;2024-03-25T10:05:56;7.50;99.90
24814;DHT22;12904;50.088;11.414;2024-03-25T10:08:22;7.50;99.90
24814;DHT22;12904;50.088;11.414;2024-03-25T10:10:48;7.40;99.90
24814;DHT22;12904;50.088;11.414;2024-03-25T10:13:15;7.40;99.90
24814;DHT22;12904;50.088;11.414;2024-03-25T10:15:41;7.40;99.90
24814;DHT22;12904;50.088;11.414;2024-03-25T10:18:06;7.30;99.90
24814;DHT22;12904;50.088;11.414;2024-03-25T10:20:33;7.30;99.90
24814;DHT22;12904;50.088;11.414;2024-03-25T10:23:00;7.40;99.90
24814;DHT22;12904;50.088;11.414;2024-03-25T10:25:27;7.50;99.90
24814;DHT22;12904;50.088;11.414;2024-03-25T10:27:57;7.50;99.90
24814;DHT22;12904;50.088;11.414;2024-03-25T10:30:23;7.70;99.90
24814;DHT22;12904;50.088;11.414;2024-03-25T10:35:26;8.00;99.90
24814;DHT22;12904;50.088;11.414;2024-03-25T10:37:56;8.30;99.90
24814;DHT22;12904;50.088;11.414;2024-03-25T10:40:33;8.60;99.90
24814;DHT22;12904;50.088;11.414;2024-03-25T10:43:10;9.00;99.90
24814;DHT22;12904;50.088;11.414;2024-03-25T10:45:45;9.30;99.90
24814;DHT22;12904;50.088;11.414;2024-03-25T10:48:19;9.60;99.90
24814;DHT22;12904;50.088;11.414;2024-03-25T10:50:46;9.60;99.90
24814;DHT22;12904;50.088;11.414;2024-03-25T10:53:12;9.70;99.90
24814;DHT22;12904;50.088;11.414;2024-03-25T10:55:40;9.70;99.90
24814;DHT22;12904;50.088;11.414;2024-03-25T10:58:07;9.60;99.90
24814;DHT22;12904;50.088;11.414;2024-03-25T11:00:34;9.40;99.90
24814;DHT22;12904;50.088;11.414;2024-03-25T11:03:01;9.20;99.90
24814;DHT22;12904;50.088;11.414;2024-03-25T11:05:27;9.00;99.90
24814;DHT22;12904;50.088;11.414;2024-03-25T11:07:53;8.80;99.90
24814;DHT22;12904;50.088;11.414;2024-03-25T11:10:18;8.70;99.90
24814;DHT22;12904;50.088;11.414;2024-03-25T11:12:44;8.60;99.90
24814;DHT22;12904;50.088;11.414;2024-03-25T11:15:11;8.80;99.90
24814;DHT22;12904;50.088;11.414;2024-03-25T11:17:36;8.90;99.90
24814;DHT22;12904;50.088;11.414;2024-03-25T11:20:13;9.00;99.90
24814;DHT22;12904;50.088;11.414;2024-03-25T11:22:49;9.20;99.90
24814;DHT22;12904;50.088;11.414;2024-03-25T11:25:15;9.40;99.90
24814;DHT22;12904;50.088;11.414;2024-03-25T11:27:43;9.50;99.90
24814;DHT22;12904;50.088;11.414;2024-03-25T11:30:10;9.50;99.90
24814;DHT22;12904;50.088;11.414;2024-03-25T11:32:53;9.60;99.90
24814;DHT22;12904;50.088;11.414;2024-03-25T11:35:19;9.90;99.90
24814;DHT22;12904;50.088;11.414;2024-03-25T11:37:45;9.90;99.90
24814;DHT22;12904;50.088;11.414;2024-03-25T11:40:12;9.90;99.90
24814;DHT22;12904;50.088;11.414;2024-03-25T11:42:40;9.70;99.90
24814;DHT22;12904;50.088;11.414;2024-03-25T11:45:07;9.50;99.90
24814;DHT22;12904;50.088;11.414;2024-03-25T11:47:33;9.30;99.90
24814;DHT22;12904;50.088;11.414;2024-03-25T11:49:59;9.30;99.90
24814;DHT22;12904;50.088;11.414;2024-03-25T11:52:30;9.20;99.90
24814;DHT22;12904;50.088;11.414;2024-03-25T11:54:56;9.20;99.90
24814;DHT22;12904;50.088;11.414;2024-03-25T11:57:22;9.30;99.90
24814;DHT22;12904;50.088;11.414;2024-03-25T11:59:48;9.50;99.90
24814;DHT22;12904;50.088;11.414;2024-03-25T12:02:15;9.70;99.90
24814;DHT22;12904;50.088;11.414;2024-03-25T12:04:43;9.90;99.90
24814;DHT22;12904;50.088;11.414;2024-03-25T12:07:12;10.30;99.90
24814;DHT22;12904;50.088;11.414;2024-03-25T12:09:38;10.50;99.90
24814;DHT22;12904;50.088;11.414;2024-03-25T12:12:23;10.70;99.90
24814;DHT22;12904;50.088;11.414;2024-03-25T12:14:49;11.20;99.90
24814;DHT22;12904;50.088;11.414;2024-03-25T12:17:16;11.40;99.90
24814;DHT22;12904;50.088;11.414;2024-03-25T12:19:41;11.50;99.90
24814;DHT22;12904;50.088;11.414;2024-03-25T12:22:07;11.50;99.90
24814;DHT22;12904;50.088;11.414;2024-03-25T12:24:33;11.60;99.90
24814;DHT22;12904;50.088;11.414;2024-03-25T12:27:00;11.70;99.90
24814;DHT22;12904;50.088;11.414;2024-03-25T12:29:26;11.80;99.90
24814;DHT22;12904;50.088;11.414;2024-03-25T12:31:58;12.30;98.00
24814;DHT22;12904;50.088;11.414;2024-03-25T12:34:26;12.70;95.90
24814;DHT22;12904;50.088;11.414;2024-03-25T12:37:03;12.70;96.50
24814;DHT22;12904;50.088;11.414;2024-03-25T12:39:32;12.50;95.20
24814;DHT22;12904;50.088;11.414;2024-03-25T12:42:04;12.20;91.20
24814;DHT22;12904;50.088;11.414;2024-03-25T12:44:30;12.10;87.90
24814;DHT22;12904;50.088;11.414;2024-03-25T12:46:55;12.20;86.30
24814;DHT22;12904;50.088;11.414;2024-03-25T12:49:24;12.20;79.70
24814;DHT22;12904;50.088;11.414;2024-03-25T12:51:49;12.10;76.60
24814;DHT22;12904;50.088;11.414;2024-03-25T12:54:15;12.10;76.20
24814;DHT22;12904;50.088;11.414;2024-03-25T12:56:41;12.00;74.50
24814;DHT22;12904;50.088;11.414;2024-03-25T12:59:07;11.90;72.80
24814;DHT22;12904;50.088;11.414;2024-03-25T13:01:33;11.70;74.70
24814;DHT22;12904;50.088;11.414;2024-03-25T13:03:59;11.60;76.70
24814;DHT22;12904;50.088;11.414;2024-03-25T13:06:24;11.40;73.90
24814;DHT22;12904;50.088;11.414;2024-03-25T13:08:50;11.10;73.00
24814;DHT22;12904;50.088;11.414;2024-03-25T13:11:15;10.70;82.10
24814;DHT22;12904;50.088;11.414;2024-03-25T13:13:41;10.60;80.60
24814;DHT22;12904;50.088;11.414;2024-03-25T13:16:07;10.60;80.20
24814;DHT22;12904;50.088;11.414;2024-03-25T13:18:32;10.50;80.20
24814;DHT22;12904;50.088;11.414;2024-03-25T13:20:58;10.50;82.20
24814;DHT22;12904;50.088;11.414;2024-03-25T13:23:24;10.50;79.50
24814;DHT22;12904;50.088;11.414;2024-03-25T13:25:49;10.40;78.90
24814;DHT22;12904;50.088;11.414;2024-03-25T13:28:15;10.50;82.10
24814;DHT22;12904;50.088;11.414;2024-03-25T13:30:41;10.60;78.60
24814;DHT22;12904;50.088;11.414;2024-03-25T13:33:06;10.60;83.20
24814;DHT22;12904;50.088;11.414;2024-03-25T13:35:32;10.70;85.80
24814;DHT22;12904;50.088;11.414;2024-03-25T13:37:57;10.70;86.20
24814;DHT22;12904;50.088;11.414;2024-03-25T13:40:23;10.70;80.40
24814;DHT22;12904;50.088;11.414;2024-03-25T13:42:49;11.00;82.70
24814;DHT22;12904;50.088;11.414;2024-03-25T13:45:14;11.30;79.00
24814;DHT22;12904;50.088;11.414;2024-03-25T13:47:40;11.40;75.40
24814;DHT22;12904;50.088;11.414;2024-03-25T13:50:06;11.50;77.30
24814;DHT22;12904;50.088;11.414;2024-03-25T13:52:36;11.40;76.60
24814;DHT22;12904;50.088;11.414;2024-03-25T13:55:02;11.40;79.60
24814;DHT22;12904;50.088;11.414;2024-03-25T13:57:28;11.60;79.80
24814;DHT22;12904;50.088;11.414;2024-03-25T13:59:54;11.70;72.90
24814;DHT22;12904;50.088;11.414;2024-03-25T14:02:19;11.70;78.10
24814;DHT22;12904;50.088;11.414;2024-03-25T14:04:45;11.80;79.20
24814;DHT22;12904;50.088;11.414;2024-03-25T14:07:11;11.80;76.70
24814;DHT22;12904;50.088;11.414;2024-03-25T14:09:36;12.00;81.60
24814;DHT22;12904;50.088;11.414;2024-03-25T14:12:02;12.20;77.60
24814;DHT22;12904;50.088;11.414;2024-03-25T14:14:29;12.60;71.90
24814;DHT22;12904;50.088;11.414;2024-03-25T14:16:54;13.00;71.50
24814;DHT22;12904;50.088;11.414;2024-03-25T14:19:20;13.40;69.60
24814;DHT22;12904;50.088;11.414;2024-03-25T14:21:48;13.90;70.90
24814;DHT22;12904;50.088;11.414;2024-03-25T14:24:13;14.00;71.40
24814;DHT22;12904;50.088;11.414;2024-03-25T14:26:39;14.20;68.00
24814;DHT22;12904;50.088;11.414;2024-03-25T14:29:05;14.40;70.90
24814;DHT22;12904;50.088;11.414;2024-03-25T14:31:30;14.70;65.30
24814;DHT22;12904;50.088;11.414;2024-03-25T14:33:56;15.00;67.00
24814;DHT22;12904;50.088;11.414;2024-03-25T14:36:22;15.30;64.50
24814;DHT22;12904;50.088;11.414;2024-03-25T14:38:48;15.30;66.90
24814;DHT22;12904;50.088;11.414;2024-03-25T14:41:19;14.70;60.10
24814;DHT22;12904;50.088;11.414;2024-03-25T14:43:44;14.30;61.20
24814;DHT22;12904;50.088;11.414;2024-03-25T14:46:10;14.20;63.00
24814;DHT22;12904;50.088;11.414;2024-03-25T14:48:36;13.90;62.70
24814;DHT22;12904;50.088;11.414;2024-03-25T14:51:01;13.80;66.50
24814;DHT22;12904;50.088;11.414;2024-03-25T14:53:27;13.60;59.00
24814;DHT22;12904;50.088;11.414;2024-03-25T14:55:53;13.80;58.50
24814;DHT22;12904;50.088;11.414;2024-03-25T14:58:18;14.10;65.20
24814;DHT22;12904;50.088;11.414;2024-03-25T15:00:44;14.50;61.80
24814;DHT22;12904;50.088;11.414;2024-03-25T15:03:09;14.40;58.90
24814;DHT22;12904;50.088;11.414;2024-03-25T15:05:35;14.40;58.10
24814;DHT22;12904;50.088;11.414;2024-03-25T15:08:01;14.20;57.60
24814;DHT22;12904;50.088;11.414;2024-03-25T15:10:27;14.10;59.70
24814;DHT22;12904;50.088;11.414;2024-03-25T15:12:53;14.10;60.50
24814;DHT22;12904;50.088;11.414;2024-03-25T15:15:19;14.10;65.00
24814;DHT22;12904;50.088;11.414;2024-03-25T15:17:45;14.10;58.30
24814;DHT22;12904;50.088;11.414;2024-03-25T15:20:11;13.70;63.40
24814;DHT22;12904;50.088;11.414;2024-03-25T15:22:36;13.40;61.60
24814;DHT22;12904;50.088;11.414;2024-03-25T15:25:04;13.00;59.20